Airfield :
LOGIN :

Register | Disclaimer

   EN    FR    IT 

 










Legend :    VFR   Marginal VFR   IFR   Intensive IFR   Very Intensive IFR
Visi :
Ceiling :
>= 8 km
>= 3000ft
5 to 8 km
1000 to 3000 ft
1500m to 5 km
500 to 1000 ft
800 to 1500m
200 to 500 ft
< 800m
< 200 ft
Symbols :   Thunderstorms  Fog  Heavy snow  Heavy precipitations  Wind > 20 kt
SIGMETs :     Misc.  Thunderstorms  Icing  Turbulence  Mountain Waves  Volcanic Ashes







- Airport Elevation : 120 ft
- IATA code : MME
- Download approach charts


EGNV - Durham Tees valley

CURRENT METAR :
  • 251450Z 05010KT CAVOK 23/03 Q1026

EXPIRED METARs :
  • 251420Z 04011KT CAVOK 23/02 Q1026
  • 251350Z 04013KT CAVOK 23/05 Q1026
  • 251320Z 05013KT CAVOK 24/05 Q1026
  • 251250Z 04011KT 020V080 CAVOK 25/06 Q1026
  • 251220Z 06008KT 020V130 CAVOK 25/05 Q1026

TAF TAF EGNV
Valid from the 25 at 15:00 until the 25 at 21:00 UTC


251358Z 2515/2521 04013KT CAVOK
BECMG 2518/2521 03003KT
ATIS : +44 9012 018 111
No reported NOTAMs for that airfield.



MET'MAP, your aeronautical weather chart ! - Copyright ORBIFLY December 2007 - Disclaimer

ORBIFLY MET'MAP TEAM :

Programming & Development : Alexandra Zaïnal
Concept & Development : Baudouin d'Aumeries
Co-Development & Prog : Marc-Olivier Méhu
Technical & hardware support : Manuel Goepfert

Contact : metmap@orbifly.com




SOURCES & CREDITS :

   NOAA